Time;durP1;ratioP1;P1;durP2;ratioP2;P2;SDS_P1;SDS_P2;PMS_P1;PMS_P2;Temp;Humidity;BMP_temperature;BMP_pressure;BME280_temperature;BME280_humidity;BME280_pressure;Samples;Min_cycle;Max_cycle;Signal;HPM_P1;HPM_P2
2022/02/20 00:01:51;;;;;;;41.78;20.77;;;;;;;;;;5093393;28;20073;-56
2022/02/20 00:04:18;;;;;;;45.85;21.30;;;;;;;;;;5093397;28;20020;-56
2022/02/20 00:06:44;;;;;;;54.97;24.25;;;;;;;;;;5093231;28;20145;-56
2022/02/20 00:09:09;;;;;;;51.30;23.55;;;;;;;;;;5094584;28;20115;-62
2022/02/20 00:11:35;;;;;;;39.63;18.92;;;;;;;;;;5097217;28;20024;-61
2022/02/20 00:14:00;;;;;;;39.40;18.00;;;;;;;;;;5097203;28;20028;-61
2022/02/20 00:16:26;;;;;;;33.83;17.45;;;;;;;;;;5097177;28;20012;-61
2022/02/20 00:18:52;;;;;;;38.60;18.80;;;;;;;;;;5097011;28;20077;-61
2022/02/20 00:21:17;;;;;;;35.70;17.48;;;;;;;;;;5097369;28;20016;-62
2022/02/20 00:23:43;;;;;;;36.53;18.13;;;;;;;;;;5096677;28;20150;-62
2022/02/20 00:26:09;;;;;;;38.88;18.95;;;;;;;;;;5097582;28;20020;-62
2022/02/20 00:28:36;;;;;;;52.92;22.85;;;;;;;;;;5096924;28;20051;-62
2022/02/20 00:31:01;;;;;;;49.80;22.15;;;;;;;;;;5097060;28;20022;-62
2022/02/20 00:33:26;;;;;;;47.10;21.13;;;;;;;;;;5096814;28;20103;-56
2022/02/20 00:35:52;;;;;;;45.42;20.80;;;;;;;;;;5096847;28;20012;-56
2022/02/20 00:38:18;;;;;;;46.97;21.67;;;;;;;;;;5096758;28;20458;-57
2022/02/20 00:40:44;;;;;;;47.40;21.10;;;;;;;;;;5096615;28;20051;-56
2022/02/20 00:43:09;;;;;;;42.30;19.45;;;;;;;;;;5095283;28;20032;-55
2022/02/20 00:45:35;;;;;;;42.47;19.35;;;;;;;;;;5096895;28;20032;-57
2022/02/20 00:48:01;;;;;;;43.30;20.17;;;;;;;;;;5094679;28;20043;-56
2022/02/20 00:50:27;;;;;;;43.05;20.15;;;;;;;;;;5095273;28;20128;-62
2022/02/20 00:52:54;;;;;;;40.25;18.50;;;;;;;;;;5096481;28;20028;-62
2022/02/20 00:55:20;;;;;;;40.47;19.20;;;;;;;;;;5096560;28;20017;-62
2022/02/20 00:57:45;;;;;;;43.85;20.27;;;;;;;;;;5095046;28;20032;-62
2022/02/20 01:00:12;;;;;;;51.03;23.00;;;;;;;;;;5078503;28;20016;-62
2022/02/20 01:02:38;;;;;;;45.92;21.33;;;;;;;;;;5095157;28;20074;-62
2022/02/20 01:05:04;;;;;;;41.03;20.30;;;;;;;;;;5095155;28;20105;-62
2022/02/20 01:07:30;;;;;;;45.22;18.63;;;;;;;;;;5094806;28;20028;-62
2022/02/20 01:09:56;;;;;;;38.22;17.48;;;;;;;;;;5096264;28;20521;-62
2022/02/20 01:12:23;;;;;;;37.22;17.02;;;;;;;;;;5095222;28;20391;-62
2022/02/20 01:14:48;;;;;;;37.35;16.83;;;;;;;;;;5094903;28;20027;-56
2022/02/20 01:17:14;;;;;;;43.47;18.88;;;;;;;;;;5095849;28;20393;-56
2022/02/20 01:19:40;;;;;;;55.58;23.05;;;;;;;;;;5095448;28;20028;-56
2022/02/20 01:22:05;;;;;;;55.15;22.55;;;;;;;;;;5094888;28;20389;-57
2022/02/20 01:24:31;;;;;;;56.28;23.55;;;;;;;;;;5094738;28;20069;-56
2022/02/20 01:26:57;;;;;;;51.70;21.70;;;;;;;;;;5095800;28;20032;-56
2022/02/20 01:29:23;;;;;;;41.55;18.33;;;;;;;;;;5094755;28;20013;-56
2022/02/20 01:31:49;;;;;;;48.55;21.60;;;;;;;;;;5095802;28;20035;-56
2022/02/20 01:34:15;;;;;;;50.42;22.48;;;;;;;;;;5095991;28;20020;-56
2022/02/20 01:36:41;;;;;;;42.22;19.75;;;;;;;;;;5094563;28;20066;-56
2022/02/20 01:39:13;;;;;;;41.10;19.60;;;;;;;;;;5094331;28;20051;-56
2022/02/20 01:41:40;;;;;;;40.25;18.48;;;;;;;;;;5094237;28;20024;-57
2022/02/20 01:44:06;;;;;;;38.50;17.48;;;;;;;;;;5094539;28;20446;-56
2022/02/20 01:46:32;;;;;;;39.35;17.80;;;;;;;;;;5094241;28;20024;-56
2022/02/20 01:48:58;;;;;;;36.10;17.27;;;;;;;;;;5075052;28;20043;-56
2022/02/20 01:51:24;;;;;;;34.65;16.48;;;;;;;;;;5073849;28;20021;-56
2022/02/20 01:53:50;;;;;;;33.55;16.65;;;;;;;;;;5073947;28;20024;-56
2022/02/20 01:56:16;;;;;;;37.42;18.63;;;;;;;;;;5074275;28;20056;-56
2022/02/20 01:59:14;;;;;;;31.52;15.75;;;;;;;;;;5056544;28;20023;-56
2022/02/20 02:01:40;;;;;;;32.85;16.60;;;;;;;;;;5074182;28;20033;-56
2022/02/20 02:04:21;;;;;;;34.17;15.45;;;;;;;;;;5073745;28;20481;-56
2022/02/20 02:06:53;;;;;;;30.48;14.48;;;;;;;;;;5057795;28;20078;-56
2022/02/20 02:09:33;;;;;;;33.28;16.58;;;;;;;;;;5073713;28;20032;-56
2022/02/20 02:12:18;;;;;;;29.80;14.80;;;;;;;;;;5063953;28;20037;-56
2022/02/20 02:15:10;;;;;;;27.63;15.02;;;;;;;;;;5073603;28;20047;-56
2022/02/20 02:18:14;;;;;;;30.05;14.98;;;;;;;;;;5013349;28;20038;-56
2022/02/20 02:20:59;;;;;;;30.67;15.60;;;;;;;;;;5012711;28;20046;-56
2022/02/20 02:23:43;;;;;;;32.13;14.48;;;;;;;;;;5057820;28;20051;-56
2022/02/20 02:26:18;;;;;;;33.53;15.20;;;;;;;;;;5073332;28;20102;-56
2022/02/20 02:28:43;;;;;;;31.95;15.85;;;;;;;;;;5074791;28;20051;-56
2022/02/20 02:31:17;;;;;;;29.38;15.55;;;;;;;;;;5072744;28;20017;-57
2022/02/20 02:33:45;;;;;;;36.80;17.17;;;;;;;;;;5073374;28;20060;-56
2022/02/20 02:36:11;;;;;;;42.22;18.95;;;;;;;;;;5072987;28;20016;-55
2022/02/20 02:38:37;;;;;;;37.08;19.35;;;;;;;;;;5072937;28;20028;-56
2022/02/20 02:41:07;;;;;;;40.97;19.77;;;;;;;;;;5072937;28;20027;-56
2022/02/20 02:43:33;;;;;;;36.97;18.40;;;;;;;;;;5072729;28;20028;-56
2022/02/20 02:45:59;;;;;;;32.35;16.88;;;;;;;;;;5072751;28;20020;-56
2022/02/20 02:48:25;;;;;;;32.30;15.32;;;;;;;;;;5089497;28;20091;-56
2022/02/20 02:50:51;;;;;;;28.80;14.90;;;;;;;;;;5092792;28;20047;-57
2022/02/20 02:53:18;;;;;;;31.27;14.10;;;;;;;;;;5093022;28;20024;-56
2022/02/20 02:55:46;;;;;;;32.40;15.25;;;;;;;;;;5094338;28;20102;-56
2022/02/20 02:58:16;;;;;;;37.17;14.90;;;;;;;;;;5093979;28;20077;-56
2022/02/20 03:00:42;;;;;;;31.70;14.73;;;;;;;;;;5092712;28;20077;-56
2022/02/20 03:03:08;;;;;;;30.83;13.60;;;;;;;;;;5093618;28;20032;-56
2022/02/20 03:05:33;;;;;;;29.52;14.32;;;;;;;;;;5093031;28;20020;-56
2022/02/20 03:08:00;;;;;;;26.40;13.60;;;;;;;;;;5092700;28;20020;-56
2022/02/20 03:10:26;;;;;;;27.80;14.05;;;;;;;;;;5092948;28;20016;-56
2022/02/20 03:12:52;;;;;;;27.35;13.38;;;;;;;;;;5093019;28;20142;-56
2022/02/20 03:15:19;;;;;;;23.48;12.35;;;;;;;;;;5092844;28;20065;-56
2022/02/20 03:17:44;;;;;;;22.08;11.63;;;;;;;;;;5092764;28;20020;-56
2022/02/20 03:20:10;;;;;;;22.95;11.88;;;;;;;;;;5093761;28;20378;-56
2022/02/20 03:22:40;;;;;;;24.95;11.82;;;;;;;;;;5092681;28;20032;-56
2022/02/20 03:25:06;;;;;;;25.75;12.40;;;;;;;;;;5093869;28;20069;-56
2022/02/20 03:27:32;;;;;;;24.73;11.38;;;;;;;;;;5092332;28;20032;-56
2022/02/20 03:30:03;;;;;;;22.98;11.10;;;;;;;;;;5076472;28;20020;-56
2022/02/20 03:32:30;;;;;;;19.52;10.90;;;;;;;;;;5092611;28;20024;-57
2022/02/20 03:34:55;;;;;;;23.95;10.27;;;;;;;;;;5075393;28;20012;-56
2022/02/20 03:37:21;;;;;;;24.88;10.88;;;;;;;;;;5075348;28;20375;-56
2022/02/20 03:39:47;;;;;;;21.45;10.70;;;;;;;;;;5092346;28;20023;-57
2022/02/20 03:42:13;;;;;;;22.60;11.05;;;;;;;;;;5092139;28;20497;-57
2022/02/20 03:44:54;;;;;;;25.48;11.02;;;;;;;;;;5093661;28;20020;-57
2022/02/20 03:47:19;;;;;;;22.45;11.75;;;;;;;;;;5091595;28;20036;-56
2022/02/20 03:49:53;;;;;;;19.27;10.15;;;;;;;;;;5092307;28;20470;-57
2022/02/20 03:52:36;;;;;;;20.30;10.40;;;;;;;;;;5092471;28;20389;-56
2022/02/20 03:55:04;;;;;;;20.42;10.40;;;;;;;;;;5092250;28;20024;-56
2022/02/20 03:57:36;;;;;;;20.52;10.32;;;;;;;;;;5092121;28;20137;-56
2022/02/20 04:00:19;;;;;;;48.77;17.83;;;;;;;;;;5093706;28;20378;-56
2022/02/20 04:02:53;;;;;;;96.05;31.83;;;;;;;;;;5092353;28;20035;-57
2022/02/20 04:05:20;;;;;;;184.00;58.05;;;;;;;;;;5092730;28;20073;-57
2022/02/20 04:07:46;;;;;;;71.53;25.98;;;;;;;;;;5091934;28;20381;-56
2022/02/20 04:10:13;;;;;;;91.78;30.27;;;;;;;;;;5092393;28;20032;-57
2022/02/20 04:12:39;;;;;;;117.22;37.45;;;;;;;;;;5092017;28;20041;-57
2022/02/20 04:15:10;;;;;;;93.20;31.45;;;;;;;;;;5092265;28;20044;-57
2022/02/20 04:17:40;;;;;;;206.57;60.67;;;;;;;;;;5091897;28;20028;-57
2022/02/20 04:20:06;;;;;;;63.60;21.95;;;;;;;;;;5091856;28;20443;-57
2022/02/20 04:22:33;;;;;;;135.52;40.22;;;;;;;;;;5091894;28;20081;-57
2022/02/20 04:24:59;;;;;;;84.78;28.02;;;;;;;;;;5091938;28;20120;-57
2022/02/20 04:27:25;;;;;;;80.65;26.92;;;;;;;;;;5091679;28;20174;-57
2022/02/20 04:29:50;;;;;;;69.45;20.98;;;;;;;;;;5091919;28;20047;-57
2022/02/20 04:32:16;;;;;;;44.92;16.80;;;;;;;;;;5091864;28;20035;-57
2022/02/20 04:34:42;;;;;;;21.95;10.50;;;;;;;;;;5091666;28;20024;-63
2022/02/20 04:37:08;;;;;;;23.02;9.55;;;;;;;;;;5091684;28;20024;-62
2022/02/20 04:39:34;;;;;;;30.85;12.23;;;;;;;;;;5091686;28;20045;-62
2022/02/20 04:42:01;;;;;;;23.80;10.68;;;;;;;;;;5091579;28;20052;-62
2022/02/20 04:44:46;;;;;;;26.77;11.18;;;;;;;;;;5091825;28;20020;-57
2022/02/20 04:47:19;;;;;;;38.67;13.13;;;;;;;;;;5090080;28;20043;-57
2022/02/20 04:49:45;;;;;;;38.38;14.75;;;;;;;;;;5091705;28;20024;-57
2022/02/20 04:52:42;;;;;;;37.03;14.27;;;;;;;;;;5081525;28;20020;-57
2022/02/20 04:55:51;;;;;;;37.47;14.60;;;;;;;;;;5084532;28;20042;-56
2022/02/20 04:58:17;;;;;;;35.53;14.02;;;;;;;;;;5095630;28;20039;-58
2022/02/20 05:00:47;;;;;;;36.33;14.90;;;;;;;;;;5095223;28;20016;-58
2022/02/20 05:03:13;;;;;;;31.70;13.32;;;;;;;;;;5096436;28;20106;-58
2022/02/20 05:06:01;;;;;;;33.55;13.85;;;;;;;;;;5066756;28;20024;-56
2022/02/20 05:08:42;;;;;;;22.65;10.38;;;;;;;;;;5095321;28;20032;-57
2022/02/20 05:11:12;;;;;;;20.48;9.13;;;;;;;;;;5095143;28;20086;-57
2022/02/20 05:13:39;;;;;;;14.00;6.75;;;;;;;;;;5096162;28;20554;-56
2022/02/20 05:16:05;;;;;;;11.07;6.03;;;;;;;;;;5094766;28;20059;-57
2022/02/20 05:18:31;;;;;;;8.95;5.78;;;;;;;;;;5094811;28;20056;-61
2022/02/20 05:20:57;;;;;;;7.97;5.30;;;;;;;;;;5095000;28;20056;-63
2022/02/20 05:23:24;;;;;;;8.95;5.15;;;;;;;;;;5095020;28;20103;-62
2022/02/20 05:25:51;;;;;;;8.60;5.00;;;;;;;;;;5095915;28;20024;-63
2022/02/20 05:28:17;;;;;;;6.65;4.65;;;;;;;;;;5094514;28;20020;-63
2022/02/20 05:30:43;;;;;;;8.38;5.60;;;;;;;;;;5094669;28;20024;-62
2022/02/20 05:33:17;;;;;;;7.30;5.03;;;;;;;;;;5094408;28;20020;-62
2022/02/20 05:35:43;;;;;;;7.05;4.28;;;;;;;;;;5094467;28;20519;-62
2022/02/20 05:38:11;;;;;;;6.50;3.90;;;;;;;;;;5077577;28;20017;-63
2022/02/20 05:40:38;;;;;;;6.65;3.63;;;;;;;;;;5094658;28;20038;-63
2022/02/20 05:43:10;;;;;;;5.28;3.78;;;;;;;;;;5094421;28;20051;-63
2022/02/20 05:45:39;;;;;;;5.07;3.47;;;;;;;;;;5094501;28;20155;-63
2022/02/20 05:48:13;;;;;;;5.53;3.53;;;;;;;;;;5093705;28;20082;-63
2022/02/20 05:50:56;;;;;;;5.15;2.88;;;;;;;;;;5094353;28;20036;-63
2022/02/20 05:53:22;;;;;;;4.95;2.78;;;;;;;;;;5094646;28;20127;-62
2022/02/20 05:55:48;;;;;;;4.53;3.10;;;;;;;;;;5094042;28;20044;-62
2022/02/20 05:58:15;;;;;;;4.00;3.45;;;;;;;;;;5094031;28;20040;-63
2022/02/20 06:00:50;;;;;;;3.13;2.33;;;;;;;;;;5094435;28;20016;-63
2022/02/20 06:03:15;;;;;;;6.07;3.28;;;;;;;;;;5093815;28;20393;-62
2022/02/20 06:05:49;;;;;;;5.60;3.20;;;;;;;;;;5093957;28;20027;-62
2022/02/20 06:08:38;;;;;;;4.93;2.45;;;;;;;;;;5089286;28;20061;-62
2022/02/20 06:11:13;;;;;;;5.07;2.33;;;;;;;;;;5093941;28;20066;-63
2022/02/20 06:13:52;;;;;;;5.20;2.60;;;;;;;;;;5094980;28;20028;-63
2022/02/20 06:16:45;;;;;;;3.47;1.67;;;;;;;;;;5083827;28;20122;-62
2022/02/20 06:19:37;;;;;;;3.10;2.28;;;;;;;;;;5083353;28;20447;-62
2022/02/20 06:22:16;;;;;;;5.22;2.40;;;;;;;;;;5093786;28;20036;-62
2022/02/20 06:24:49;;;;;;;2.90;2.03;;;;;;;;;;5094090;28;20027;-62
2022/02/20 06:27:23;;;;;;;3.25;2.55;;;;;;;;;;5094404;28;20039;-62
2022/02/20 06:29:49;;;;;;;2.75;2.15;;;;;;;;;;5093475;28;20020;-62
2022/02/20 06:32:15;;;;;;;2.95;2.15;;;;;;;;;;5093357;28;20016;-57
2022/02/20 06:34:40;;;;;;;1.77;1.58;;;;;;;;;;5094582;28;20027;-57
2022/02/20 06:37:06;;;;;;;3.58;2.58;;;;;;;;;;5076716;28;20097;-56
2022/02/20 06:39:33;;;;;;;2.33;1.00;;;;;;;;;;5094327;28;20409;-56
2022/02/20 06:41:59;;;;;;;4.60;2.05;;;;;;;;;;5092803;28;20016;-56
2022/02/20 06:44:25;;;;;;;3.38;1.67;;;;;;;;;;5093385;28;20016;-56
2022/02/20 06:46:53;;;;;;;2.17;1.63;;;;;;;;;;5093992;28;20442;-57
2022/02/20 06:49:28;;;;;;;5.18;1.98;;;;;;;;;;5094593;28;20051;-58
2022/02/20 06:52:07;;;;;;;3.17;1.52;;;;;;;;;;5093399;28;20030;-58
2022/02/20 06:54:36;;;;;;;3.15;2.03;;;;;;;;;;5092984;28;20484;-58
2022/02/20 06:57:27;;;;;;;2.92;1.90;;;;;;;;;;5093443;28;20117;-58
2022/02/20 06:59:53;;;;;;;4.07;1.90;;;;;;;;;;5094198;28;20081;-58
2022/02/20 07:02:18;;;;;;;1.30;0.80;;;;;;;;;;5094287;28;20016;-58
2022/02/20 07:04:44;;;;;;;4.30;1.55;;;;;;;;;;5094405;28;20060;-58
2022/02/20 07:07:09;;;;;;;3.13;1.23;;;;;;;;;;5093972;28;20535;-58
2022/02/20 07:09:35;;;;;;;2.28;0.77;;;;;;;;;;5093848;28;20478;-58
2022/02/20 07:12:00;;;;;;;2.95;0.80;;;;;;;;;;5093904;28;20409;-58
2022/02/20 07:14:26;;;;;;;1.13;0.93;;;;;;;;;;5093985;28;20049;-58
2022/02/20 07:16:51;;;;;;;1.88;0.90;;;;;;;;;;5093999;28;20031;-58
2022/02/20 07:19:17;;;;;;;1.77;0.93;;;;;;;;;;5093620;28;20043;-57
2022/02/20 07:21:43;;;;;;;3.00;1.42;;;;;;;;;;5092720;28;20027;-58
2022/02/20 07:24:09;;;;;;;1.50;1.35;;;;;;;;;;5093796;28;20393;-58
2022/02/20 07:26:34;;;;;;;2.67;1.17;;;;;;;;;;5093948;28;20024;-58
2022/02/20 07:29:00;;;;;;;1.70;1.20;;;;;;;;;;5093617;28;20111;-58
2022/02/20 07:31:28;;;;;;;2.08;0.73;;;;;;;;;;5093594;28;20382;-58
2022/02/20 07:33:54;;;;;;;1.50;1.08;;;;;;;;;;5092391;28;20031;-58
2022/02/20 07:36:20;;;;;;;0.60;0.60;;;;;;;;;;5094137;28;20539;-58
2022/02/20 07:38:45;;;;;;;2.95;1.40;;;;;;;;;;5092236;28;20405;-58
2022/02/20 07:41:11;;;;;;;0.95;0.77;;;;;;;;;;5093715;28;20020;-58
2022/02/20 07:43:44;;;;;;;3.38;1.42;;;;;;;;;;5093803;28;20032;-58
2022/02/20 07:46:11;;;;;;;1.20;1.10;;;;;;;;;;5093763;28;20043;-58
2022/02/20 07:48:40;;;;;;;1.20;0.85;;;;;;;;;;5093262;28;20122;-58
2022/02/20 07:51:06;;;;;;;3.15;1.20;;;;;;;;;;5093414;28;20038;-57
2022/02/20 07:53:32;;;;;;;2.55;1.42;;;;;;;;;;5092348;28;20016;-57
2022/02/20 07:55:58;;;;;;;1.30;0.50;;;;;;;;;;5093665;28;20028;-56
2022/02/20 07:58:23;;;;;;;2.25;1.55;;;;;;;;;;5093416;28;20016;-56
2022/02/20 08:00:49;;;;;;;2.28;1.02;;;;;;;;;;5093414;28;20039;-57
2022/02/20 08:03:14;;;;;;;1.88;1.25;;;;;;;;;;5093446;28;20055;-57
2022/02/20 08:05:40;;;;;;;1.65;1.45;;;;;;;;;;5093005;28;20431;-58
2022/02/20 08:08:05;;;;;;;3.33;1.70;;;;;;;;;;5093064;28;20120;-58
2022/02/20 08:10:31;;;;;;;1.00;0.90;;;;;;;;;;5093388;28;20445;-58
2022/02/20 08:12:56;;;;;;;0.85;0.85;;;;;;;;;;5093315;28;20382;-58
2022/02/20 08:15:24;;;;;;;1.52;1.40;;;;;;;;;;5093246;28;20134;-58
2022/02/20 08:17:49;;;;;;;3.53;1.42;;;;;;;;;;5093084;28;20093;-58
2022/02/20 08:20:16;;;;;;;2.33;1.75;;;;;;;;;;5093145;28;20493;-58
2022/02/20 08:22:41;;;;;;;2.17;1.70;;;;;;;;;;5093284;28;20107;-58
2022/02/20 08:25:08;;;;;;;0.52;0.52;;;;;;;;;;5092879;28;20020;-58
2022/02/20 08:27:35;;;;;;;2.08;1.58;;;;;;;;;;5092848;28;20016;-58
2022/02/20 08:30:01;;;;;;;2.35;1.52;;;;;;;;;;5092859;28;20416;-63
2022/02/20 08:32:26;;;;;;;2.63;1.77;;;;;;;;;;5097008;28;20035;-57
2022/02/20 08:34:52;;;;;;;2.10;1.13;;;;;;;;;;5097141;28;20071;-59
2022/02/20 08:37:17;;;;;;;0.73;0.60;;;;;;;;;;5096859;28;20015;-61
2022/02/20 08:39:43;;;;;;;2.60;1.77;;;;;;;;;;5097168;28;20153;-58
2022/02/20 08:42:09;;;;;;;1.35;0.93;;;;;;;;;;5095415;28;20015;-59
2022/02/20 08:44:36;;;;;;;2.05;1.88;;;;;;;;;;5096662;28;20028;-57
2022/02/20 08:47:01;;;;;;;2.53;1.65;;;;;;;;;;5096340;28;20438;-56
2022/02/20 08:49:27;;;;;;;3.22;2.10;;;;;;;;;;5096546;28;20064;-61
2022/02/20 08:51:53;;;;;;;1.65;1.20;;;;;;;;;;5096535;28;20018;-58
2022/02/20 08:54:18;;;;;;;4.75;1.80;;;;;;;;;;5096525;28;20163;-62
2022/02/20 08:56:44;;;;;;;3.38;2.13;;;;;;;;;;5096166;28;20477;-60
2022/02/20 08:59:09;;;;;;;1.70;1.45;;;;;;;;;;5095917;28;20028;-60
2022/02/20 09:01:35;;;;;;;2.40;1.95;;;;;;;;;;5096226;28;20032;-60
2022/02/20 09:04:03;;;;;;;3.88;2.10;;;;;;;;;;5095984;28;20028;-71
2022/02/20 09:06:29;;;;;;;2.08;1.88;;;;;;;;;;5096296;28;20027;-66
2022/02/20 09:08:55;;;;;;;3.17;1.90;;;;;;;;;;5094764;28;20059;-64
2022/02/20 09:11:21;;;;;;;2.72;2.00;;;;;;;;;;5096209;28;20097;-66
2022/02/20 09:13:46;;;;;;;4.65;1.75;;;;;;;;;;5096175;28;20036;-66
2022/02/20 09:16:12;;;;;;;3.53;2.40;;;;;;;;;;5094961;28;20016;-62
2022/02/20 09:18:37;;;;;;;3.47;2.33;;;;;;;;;;5095970;28;20055;-63
2022/02/20 09:21:03;;;;;;;4.57;2.30;;;;;;;;;;5095973;28;20039;-63
2022/02/20 09:23:28;;;;;;;2.88;2.05;;;;;;;;;;5095477;28;20394;-63
2022/02/20 09:25:53;;;;;;;2.92;2.10;;;;;;;;;;5094005;28;20056;-63
2022/02/20 09:28:19;;;;;;;4.85;2.10;;;;;;;;;;5094667;28;20047;-63
2022/02/20 09:30:44;;;;;;;2.60;1.90;;;;;;;;;;5095549;28;20057;-63
2022/02/20 09:33:10;;;;;;;2.50;1.83;;;;;;;;;;5094768;28;20386;-64
2022/02/20 09:35:35;;;;;;;2.30;1.23;;;;;;;;;;5093745;28;20024;-63
2022/02/20 09:38:01;;;;;;;2.03;1.83;;;;;;;;;;5095173;28;20030;-64
2022/02/20 09:40:27;;;;;;;2.53;2.05;;;;;;;;;;5094983;28;20020;-63
2022/02/20 09:42:53;;;;;;;3.35;2.33;;;;;;;;;;5095467;28;20051;-63
2022/02/20 09:45:18;;;;;;;2.45;1.95;;;;;;;;;;5095440;28;20469;-64
2022/02/20 09:47:44;;;;;;;1.70;1.60;;;;;;;;;;5094884;28;20394;-68
2022/02/20 09:50:10;;;;;;;2.65;1.85;;;;;;;;;;5095236;28;20027;-70
2022/02/20 09:52:35;;;;;;;3.00;2.60;;;;;;;;;;5094498;28;20035;-70
2022/02/20 09:55:01;;;;;;;2.63;1.88;;;;;;;;;;5094220;28;20023;-70
2022/02/20 09:57:26;;;;;;;2.85;2.13;;;;;;;;;;5095237;28;20028;-70
2022/02/20 09:59:53;;;;;;;3.70;2.47;;;;;;;;;;5095238;28;20031;-70
2022/02/20 10:02:20;;;;;;;3.63;2.33;;;;;;;;;;5093979;28;20453;-71
2022/02/20 10:04:49;;;;;;;4.53;2.72;;;;;;;;;;5094104;28;20172;-62
2022/02/20 10:07:30;;;;;;;3.70;2.45;;;;;;;;;;5095404;28;20039;-62
2022/02/20 10:09:57;;;;;;;4.15;2.47;;;;;;;;;;5094978;28;20024;-62
2022/02/20 10:12:23;;;;;;;4.22;2.95;;;;;;;;;;5095011;28;20012;-62
2022/02/20 10:14:49;;;;;;;6.10;3.40;;;;;;;;;;5094994;28;20020;-63
2022/02/20 10:17:16;;;;;;;5.20;3.25;;;;;;;;;;5095033;28;20035;-62
2022/02/20 10:20:22;;;;;;;4.18;3.28;;;;;;;;;;5052257;28;20072;-62
2022/02/20 10:23:07;;;;;;;4.43;3.22;;;;;;;;;;5091324;28;20131;-62
2022/02/20 10:25:51;;;;;;;3.80;3.38;;;;;;;;;;5095396;28;20086;-62
2022/02/20 10:28:35;;;;;;;3.67;3.25;;;;;;;;;;5094234;28;20043;-62
2022/02/20 10:31:04;;;;;;;4.22;3.08;;;;;;;;;;5095002;28;20103;-62
2022/02/20 10:33:30;;;;;;;4.35;2.67;;;;;;;;;;5094610;28;20104;-62
2022/02/20 10:36:03;;;;;;;4.28;3.10;;;;;;;;;;5093647;28;20427;-62
2022/02/20 10:38:34;;;;;;;5.60;3.33;;;;;;;;;;5093678;28;20061;-62
2022/02/20 10:41:03;;;;;;;4.85;3.47;;;;;;;;;;5093782;28;20073;-62
2022/02/20 10:43:31;;;;;;;2.35;1.88;;;;;;;;;;5093798;28;20111;-62
2022/02/20 10:46:21;;;;;;;3.17;2.38;;;;;;;;;;5093573;28;20056;-62
2022/02/20 10:48:48;;;;;;;4.43;2.50;;;;;;;;;;5093311;28;20177;-62
2022/02/20 10:51:15;;;;;;;3.45;2.40;;;;;;;;;;5094197;28;20111;-62
2022/02/20 10:53:41;;;;;;;2.17;1.98;;;;;;;;;;5093463;28;20067;-62
2022/02/20 10:56:08;;;;;;;2.92;2.22;;;;;;;;;;5094099;28;20454;-62
2022/02/20 10:58:40;;;;;;;2.25;1.83;;;;;;;;;;5094011;28;20027;-62
2022/02/20 11:01:06;;;;;;;3.97;2.50;;;;;;;;;;5094198;28;20123;-62
2022/02/20 11:03:33;;;;;;;2.88;2.03;;;;;;;;;;5094122;28;20074;-62
2022/02/20 11:06:01;;;;;;;3.53;2.35;;;;;;;;;;5094005;28;20024;-62
2022/02/20 11:08:27;;;;;;;3.90;2.33;;;;;;;;;;5093994;28;20020;-62
2022/02/20 11:10:53;;;;;;;1.80;1.48;;;;;;;;;;5093822;28;20020;-62
2022/02/20 11:13:19;;;;;;;4.40;2.47;;;;;;;;;;5092575;28;20023;-62
2022/02/20 11:15:46;;;;;;;2.55;1.90;;;;;;;;;;5093743;28;20024;-62
2022/02/20 11:18:16;;;;;;;10.05;4.28;;;;;;;;;;5093781;28;20020;-62
2022/02/20 11:20:46;;;;;;;4.57;3.25;;;;;;;;;;5093908;28;20036;-62
2022/02/20 11:23:12;;;;;;;3.05;2.10;;;;;;;;;;5093757;28;20047;-62
2022/02/20 11:25:38;;;;;;;4.82;2.97;;;;;;;;;;5093714;28;20028;-62
2022/02/20 11:28:04;;;;;;;4.35;2.88;;;;;;;;;;5093558;28;20459;-62
2022/02/20 11:30:30;;;;;;;3.35;2.40;;;;;;;;;;5092374;28;20023;-62
2022/02/20 11:32:57;;;;;;;2.92;1.65;;;;;;;;;;5093629;28;20036;-62
2022/02/20 11:35:23;;;;;;;3.75;2.20;;;;;;;;;;5093518;28;20016;-62
2022/02/20 11:37:59;;;;;;;2.75;1.73;;;;;;;;;;5093425;28;20039;-62
2022/02/20 11:40:27;;;;;;;3.97;2.58;;;;;;;;;;5093541;28;20408;-62
2022/02/20 11:43:04;;;;;;;4.05;2.42;;;;;;;;;;5093555;28;20111;-62
2022/02/20 11:45:31;;;;;;;4.40;3.00;;;;;;;;;;5093458;28;20024;-62
2022/02/20 11:48:02;;;;;;;3.22;2.60;;;;;;;;;;5092849;28;20040;-62
2022/02/20 11:50:28;;;;;;;3.90;2.47;;;;;;;;;;5093456;28;20488;-62
2022/02/20 11:52:57;;;;;;;3.72;2.72;;;;;;;;;;5093425;28;20020;-62
2022/02/20 11:55:32;;;;;;;3.83;2.23;;;;;;;;;;5093519;28;20024;-62
2022/02/20 11:58:10;;;;;;;4.15;2.92;;;;;;;;;;5093384;28;20059;-62
2022/02/20 12:00:36;;;;;;;3.38;2.55;;;;;;;;;;5093242;28;20386;-62
2022/02/20 12:03:13;;;;;;;4.88;3.08;;;;;;;;;;5091867;28;20066;-62
2022/02/20 12:05:39;;;;;;;5.03;3.30;;;;;;;;;;5097268;28;20503;-62
2022/02/20 12:08:24;;;;;;;4.35;2.80;;;;;;;;;;5097055;28;20102;-62
2022/02/20 12:11:08;;;;;;;4.45;2.72;;;;;;;;;;5078723;28;20444;-62
2022/02/20 12:13:33;;;;;;;5.45;3.83;;;;;;;;;;5097451;28;20462;-62
2022/02/20 12:16:17;;;;;;;4.93;3.38;;;;;;;;;;5097116;28;20031;-62
2022/02/20 12:19:02;;;;;;;4.40;2.95;;;;;;;;;;5097280;28;20479;-62
2022/02/20 12:21:30;;;;;;;5.60;3.60;;;;;;;;;;5097095;28;20032;-62
2022/02/20 12:23:57;;;;;;;6.13;3.53;;;;;;;;;;5095886;28;20019;-62
2022/02/20 12:26:42;;;;;;;4.88;3.88;;;;;;;;;;5097081;28;20111;-62
2022/02/20 12:29:10;;;;;;;9.25;4.15;;;;;;;;;;5096848;28;20378;-62
2022/02/20 12:31:56;;;;;;;5.82;3.58;;;;;;;;;;5095722;28;20020;-62
2022/02/20 12:34:39;;;;;;;6.18;4.07;;;;;;;;;;5086080;28;20074;-62
2022/02/20 12:37:05;;;;;;;4.85;3.33;;;;;;;;;;5096877;28;20074;-62
2022/02/20 12:39:31;;;;;;;6.78;3.63;;;;;;;;;;5096749;28;20031;-62
2022/02/20 12:42:01;;;;;;;5.97;3.92;;;;;;;;;;5096671;28;20063;-63
2022/02/20 12:44:29;;;;;;;10.80;4.55;;;;;;;;;;5096702;28;20031;-62
2022/02/20 12:46:54;;;;;;;8.10;3.70;;;;;;;;;;5096356;28;20488;-62
2022/02/20 12:49:20;;;;;;;5.03;3.45;;;;;;;;;;5096496;28;20134;-62
2022/02/20 12:51:45;;;;;;;6.35;3.78;;;;;;;;;;5096716;28;20110;-62
2022/02/20 12:54:26;;;;;;;6.13;4.03;;;;;;;;;;5096587;28;20440;-62
2022/02/20 12:57:04;;;;;;;7.20;4.07;;;;;;;;;;5096649;28;20036;-62
2022/02/20 12:59:30;;;;;;;6.22;4.13;;;;;;;;;;5096439;28;20023;-62
2022/02/20 13:02:05;;;;;;;7.30;4.03;;;;;;;;;;5096420;28;20077;-62
2022/02/20 13:04:34;;;;;;;5.32;3.75;;;;;;;;;;5096045;28;20046;-62
2022/02/20 13:07:04;;;;;;;4.95;3.20;;;;;;;;;;5096327;28;20020;-62
2022/02/20 13:09:37;;;;;;;5.13;3.13;;;;;;;;;;5096122;28;20036;-62
2022/02/20 13:12:16;;;;;;;4.00;2.88;;;;;;;;;;5096161;28;20028;-62
2022/02/20 13:15:01;;;;;;;6.28;3.13;;;;;;;;;;5094843;28;20028;-62
2022/02/20 13:17:42;;;;;;;5.35;2.60;;;;;;;;;;5095524;28;20111;-62
2022/02/20 13:20:07;;;;;;;;;;;;;;;;;;5096524;28;20036;-62
2022/02/20 13:22:34;;;;;;;8.27;3.20;;;;;;;;;;5096100;28;19904;-62
2022/02/20 13:25:06;;;;;;;4.63;2.50;;;;;;;;;;5095983;28;20393;-62
2022/02/20 13:27:50;;;;;;;3.67;2.10;;;;;;;;;;5095871;28;20428;-62
2022/02/20 13:30:26;;;;;;;3.42;2.50;;;;;;;;;;5095953;28;20043;-62
2022/02/20 13:32:51;;;;;;;1.83;1.27;;;;;;;;;;5094426;28;20067;-62
2022/02/20 13:35:38;;;;;;;2.70;2.10;;;;;;;;;;5095880;28;20036;-62
2022/02/20 13:38:05;;;;;;;6.13;2.50;;;;;;;;;;5095829;28;20050;-62
2022/02/20 13:40:31;;;;;;;4.53;1.35;;;;;;;;;;5094473;28;20438;-62
2022/02/20 13:43:05;;;;;;;5.38;2.88;;;;;;;;;;5095667;28;20032;-62
2022/02/20 13:45:34;;;;;;;1.83;1.65;;;;;;;;;;5095560;28;20055;-62
2022/02/20 13:48:00;;;;;;;2.60;2.00;;;;;;;;;;5094864;28;20040;-62
2022/02/20 13:50:26;;;;;;;3.15;1.92;;;;;;;;;;5095523;28;20032;-62
2022/02/20 13:52:51;;;;;;;2.97;2.15;;;;;;;;;;5095605;28;20016;-62
2022/02/20 13:55:22;;;;;;;0.82;0.82;;;;;;;;;;5095340;28;20020;-62
2022/02/20 13:57:47;;;;;;;;;;;;;;;;;;5095427;28;20043;-62
2022/02/20 14:00:19;;;;;;;4.77;2.00;;;;;;;;;;5095572;28;19907;-62
2022/02/20 14:02:51;;;;;;;4.40;2.60;;;;;;;;;;5095277;28;20032;-62
2022/02/20 14:05:28;;;;;;;2.40;1.60;;;;;;;;;;5095038;28;20024;-62
2022/02/20 14:08:06;;;;;;;1.60;1.17;;;;;;;;;;5093769;28;20493;-62
2022/02/20 14:10:53;;;;;;;3.95;1.98;;;;;;;;;;5095138;28;20027;-62
2022/02/20 14:13:19;;;;;;;4.70;2.50;;;;;;;;;;5093710;28;20020;-62
2022/02/20 14:15:55;;;;;;;6.90;2.90;;;;;;;;;;5094944;28;20012;-62
2022/02/20 14:18:21;;;;;;;4.78;2.65;;;;;;;;;;5095011;28;20063;-62
2022/02/20 14:20:55;;;;;;;4.60;2.63;;;;;;;;;;5094758;28;20047;-62
2022/02/20 14:23:22;;;;;;;4.72;3.03;;;;;;;;;;5093622;28;20036;-62
2022/02/20 14:25:54;;;;;;;5.43;3.40;;;;;;;;;;5093607;28;20150;-62
2022/02/20 14:28:26;;;;;;;2.63;2.03;;;;;;;;;;5093498;28;20038;-62
2022/02/20 14:31:25;;;;;;;2.67;1.60;;;;;;;;;;5094637;28;20031;-62
2022/02/20 14:33:51;;;;;;;3.65;2.08;;;;;;;;;;5060296;28;20042;-62
2022/02/20 14:36:34;;;;;;;4.40;2.17;;;;;;;;;;5094546;28;20106;-62
2022/02/20 14:39:07;;;;;;;5.47;2.58;;;;;;;;;;5094561;28;20024;-62
2022/02/20 14:41:32;;;;;;;17.75;5.53;;;;;;;;;;5093347;28;20470;-62
2022/02/20 14:43:58;;;;;;;8.32;3.78;;;;;;;;;;5094436;28;20030;-62
2022/02/20 14:46:27;;;;;;;12.38;5.25;;;;;;;;;;5094494;28;20032;-62
2022/02/20 14:48:53;;;;;;;5.13;3.05;;;;;;;;;;5093033;28;20116;-62